Time;durP1;ratioP1;P1;durP2;ratioP2;P2;SDS_P1;SDS_P2;PMS_P1;PMS_P2;Temp;Humidity;BMP_temperature;BMP_pressure;BME280_temperature;BME280_humidity;BME280_pressure;Samples;Min_cycle;Max_cycle;Signal;HPM_P1;HPM_P2
2020/12/13 08:02:31;;;;;;;32.60;6.60;;;;;;;;;;5057806;28;20395;-74
2020/12/13 08:04:56;;;;;;;19.85;6.75;;;;;;;;;;5056414;28;20380;-74
2020/12/13 08:07:21;;;;;;;19.05;7.32;;;;;;;;;;5068973;28;20128;-74
2020/12/13 08:09:54;;;;;;;33.42;9.65;;;;;;;;;;5069703;28;20013;-74
2020/12/13 08:12:19;;;;;;;25.85;9.88;;;;;;;;;;5068592;28;20048;-75
2020/12/13 08:14:47;;;;;;;25.40;7.45;;;;;;;;;;5069060;28;20044;-73
2020/12/13 08:17:16;;;;;;;21.35;9.07;;;;;;;;;;5068967;28;20408;-74
2020/12/13 08:19:42;;;;;;;22.17;7.13;;;;;;;;;;5068355;28;20029;-74
2020/12/13 08:22:24;;;;;;;30.13;8.00;;;;;;;;;;5068430;28;20052;-73
2020/12/13 08:24:54;;;;;;;24.85;7.07;;;;;;;;;;5067017;28;20769;-74
2020/12/13 08:27:20;;;;;;;30.55;7.93;;;;;;;;;;5067977;28;20035;-74
2020/12/13 08:29:45;;;;;;;20.92;8.85;;;;;;;;;;5067943;28;20088;-74
2020/12/13 08:32:11;;;;;;;26.60;9.27;;;;;;;;;;5067878;28;20029;-74
2020/12/13 08:34:36;;;;;;;26.38;10.20;;;;;;;;;;5068025;28;20036;-74
2020/12/13 08:37:02;;;;;;;33.75;13.18;;;;;;;;;;5068095;28;20009;-74
2020/12/13 08:39:28;;;;;;;25.40;9.60;;;;;;;;;;5068293;28;20057;-74
2020/12/13 08:41:54;;;;;;;20.52;8.05;;;;;;;;;;5069174;28;20414;-74
2020/12/13 08:44:41;;;;;;;21.95;8.98;;;;;;;;;;5068340;28;20063;-74
2020/12/13 08:47:10;;;;;;;22.75;8.48;;;;;;;;;;5066478;28;20035;-75
2020/12/13 08:49:37;;;;;;;23.33;8.82;;;;;;;;;;5068282;28;20385;-74
2020/12/13 08:52:11;;;;;;;23.27;8.93;;;;;;;;;;5067128;28;20494;-74
2020/12/13 08:54:50;;;;;;;24.98;8.95;;;;;;;;;;5068765;28;20060;-74
2020/12/13 08:57:28;;;;;;;24.77;8.73;;;;;;;;;;5067163;28;20032;-74
2020/12/13 09:00:03;;;;;;;18.33;7.57;;;;;;;;;;5067472;28;20104;-74
2020/12/13 09:02:28;;;;;;;23.70;9.00;;;;;;;;;;5067499;28;20060;-74
2020/12/13 09:04:54;;;;;;;23.67;9.27;;;;;;;;;;5067505;28;20025;-74
2020/12/13 09:07:20;;;;;;;18.77;7.63;;;;;;;;;;5067698;28;20033;-74
2020/12/13 09:09:45;;;;;;;23.63;7.63;;;;;;;;;;5068034;28;20804;-74
2020/12/13 09:12:18;;;;;;;21.50;8.52;;;;;;;;;;5064262;28;20040;-74
2020/12/13 09:14:44;;;;;;;23.73;7.97;;;;;;;;;;5052078;28;20064;-74
2020/12/13 09:17:09;;;;;;;25.33;8.18;;;;;;;;;;5053213;28;20606;-74
2020/12/13 09:19:34;;;;;;;19.02;7.88;;;;;;;;;;5054721;28;20123;-74
2020/12/13 09:22:00;;;;;;;17.50;7.30;;;;;;;;;;5054554;28;20041;-74
2020/12/13 09:24:31;;;;;;;19.17;7.78;;;;;;;;;;5053755;28;20461;-74
2020/12/13 09:26:57;;;;;;;20.05;7.60;;;;;;;;;;5054484;28;20057;-74
2020/12/13 09:29:23;;;;;;;16.17;7.15;;;;;;;;;;5054034;28;20048;-74
2020/12/13 09:31:48;;;;;;;18.33;6.40;;;;;;;;;;5054587;28;20021;-74
2020/12/13 09:34:13;;;;;;;16.60;6.68;;;;;;;;;;5053940;28;20031;-74
2020/12/13 09:36:38;;;;;;;17.25;6.45;;;;;;;;;;5053575;28;20120;-75
2020/12/13 09:39:04;;;;;;;19.02;7.00;;;;;;;;;;5053339;28;20070;-74
2020/12/13 09:41:29;;;;;;;27.67;11.73;;;;;;;;;;5053821;28;20044;-74
2020/12/13 09:43:54;;;;;;;19.40;9.65;;;;;;;;;;5054250;28;20044;-74
2020/12/13 09:46:20;;;;;;;18.63;6.97;;;;;;;;;;5054661;28;20060;-74
2020/12/13 09:48:45;;;;;;;13.75;6.45;;;;;;;;;;5054120;28;20029;-74
2020/12/13 09:51:15;;;;;;;17.77;7.03;;;;;;;;;;5054605;28;20063;-74
2020/12/13 09:53:40;;;;;;;17.58;6.78;;;;;;;;;;5053835;28;20052;-73
2020/12/13 09:56:05;;;;;;;18.08;6.95;;;;;;;;;;5052593;28;20516;-76
2020/12/13 09:58:30;;;;;;;18.83;7.20;;;;;;;;;;5053230;28;20044;-74
2020/12/13 10:00:56;;;;;;;13.77;6.22;;;;;;;;;;5053484;28;20056;-75
2020/12/13 10:03:21;;;;;;;19.05;6.97;;;;;;;;;;5053987;28;20048;-74
2020/12/13 10:11:10;;;;;;;12.65;4.25;;;;;;;;;;5051103;28;20036;-75
2020/12/13 10:13:35;;;;;;;10.85;4.28;;;;;;;;;;5064924;28;20021;-74
2020/12/13 10:16:01;;;;;;;15.02;3.97;;;;;;;;;;5054434;28;20036;-74
2020/12/13 10:18:26;;;;;;;10.15;3.92;;;;;;;;;;5053984;28;20477;-75
2020/12/13 10:20:51;;;;;;;14.93;4.10;;;;;;;;;;5053382;28;20024;-74
2020/12/13 10:23:16;;;;;;;6.18;2.53;;;;;;;;;;5053090;28;20114;-75
2020/12/13 10:25:45;;;;;;;6.95;2.08;;;;;;;;;;5052633;28;20043;-75
2020/12/13 10:28:10;;;;;;;3.58;1.60;;;;;;;;;;5053266;28;20021;-74
2020/12/13 10:30:36;;;;;;;3.83;1.75;;;;;;;;;;5052754;28;20079;-75
2020/12/13 10:33:01;;;;;;;4.55;1.80;;;;;;;;;;5052901;28;20021;-75
2020/12/13 10:35:26;;;;;;;5.38;1.55;;;;;;;;;;5052025;28;20504;-74
2020/12/13 10:37:51;;;;;;;5.30;2.42;;;;;;;;;;5052845;28;20028;-74
2020/12/13 10:40:17;;;;;;;5.43;2.75;;;;;;;;;;5046337;28;20028;-74
2020/12/13 10:42:43;;;;;;;9.82;3.55;;;;;;;;;;5034680;28;20057;-75
2020/12/13 10:45:08;;;;;;;5.38;2.55;;;;;;;;;;5046743;28;20029;-75
2020/12/13 10:47:33;;;;;;;4.82;2.30;;;;;;;;;;5046372;28;20036;-75
2020/12/13 10:49:58;;;;;;;6.72;3.15;;;;;;;;;;5053200;28;20017;-77
2020/12/13 10:52:24;;;;;;;11.23;4.93;;;;;;;;;;5048719;28;20052;-75
2020/12/13 10:54:49;;;;;;;5.70;2.60;;;;;;;;;;5046407;28;20051;-75
2020/12/13 10:57:14;;;;;;;3.25;1.45;;;;;;;;;;5056173;28;20035;-75
2020/12/13 10:59:40;;;;;;;5.10;1.80;;;;;;;;;;5057393;28;20036;-75
2020/12/13 11:02:05;;;;;;;10.80;1.80;;;;;;;;;;5045524;28;20417;-75
2020/12/13 11:04:30;;;;;;;3.25;1.50;;;;;;;;;;5053883;28;20060;-75
2020/12/13 11:06:55;;;;;;;3.08;1.38;;;;;;;;;;5047625;28;20028;-76
2020/12/13 11:09:21;;;;;;;4.47;2.22;;;;;;;;;;5046401;28;20537;-75
2020/12/13 11:11:46;;;;;;;5.18;2.22;;;;;;;;;;5046230;28;20040;-75
2020/12/13 11:14:12;;;;;;;3.83;1.55;;;;;;;;;;5046546;28;20500;-75
2020/12/13 11:16:37;;;;;;;2.42;1.42;;;;;;;;;;5050522;28;20025;-75
2020/12/13 11:19:02;;;;;;;3.47;1.48;;;;;;;;;;5047351;28;20524;-75
2020/12/13 11:21:28;;;;;;;4.53;1.50;;;;;;;;;;5045120;28;20119;-74
2020/12/13 11:23:53;;;;;;;6.13;2.03;;;;;;;;;;5044339;28;20451;-75
2020/12/13 11:26:18;;;;;;;9.30;2.50;;;;;;;;;;5043952;28;20025;-75
2020/12/13 11:28:43;;;;;;;6.53;1.90;;;;;;;;;;5038163;28;20040;-77
2020/12/13 11:31:09;;;;;;;9.07;1.58;;;;;;;;;;5048948;28;20024;-75
2020/12/13 11:33:34;;;;;;;10.82;2.47;;;;;;;;;;5044058;28;20439;-76
2020/12/13 11:35:59;;;;;;;10.95;5.70;;;;;;;;;;5058477;28;20036;-74
2020/12/13 11:38:24;;;;;;;6.82;2.70;;;;;;;;;;5057391;28;20033;-74
2020/12/13 11:40:50;;;;;;;6.97;3.70;;;;;;;;;;5050109;28;20075;-74
2020/12/13 11:43:15;;;;;;;5.55;2.70;;;;;;;;;;5049904;28;20898;-74
2020/12/13 11:45:40;;;;;;;7.55;2.72;;;;;;;;;;5043016;28;20016;-75
2020/12/13 11:48:06;;;;;;;14.60;3.53;;;;;;;;;;5048925;28;20025;-75
2020/12/13 11:50:40;;;;;;;9.05;3.90;;;;;;;;;;5048567;28;20044;-76
2020/12/13 11:53:05;;;;;;;7.60;3.17;;;;;;;;;;5048170;28;20024;-75
2020/12/13 11:55:30;;;;;;;6.35;3.65;;;;;;;;;;5045443;28;20083;-76
2020/12/13 11:57:56;;;;;;;19.20;5.05;;;;;;;;;;5055197;28;20024;-75
2020/12/13 12:00:21;;;;;;;11.52;5.47;;;;;;;;;;5053769;28;20053;-75
2020/12/13 12:02:46;;;;;;;9.65;5.22;;;;;;;;;;5054079;28;20036;-75
2020/12/13 12:05:12;;;;;;;14.48;5.60;;;;;;;;;;5051988;28;20082;-76
2020/12/13 12:07:37;;;;;;;14.07;7.00;;;;;;;;;;5053748;28;20044;-75
2020/12/13 12:10:02;;;;;;;16.10;7.65;;;;;;;;;;5044519;28;20040;-74
2020/12/13 12:12:28;;;;;;;9.30;4.85;;;;;;;;;;5046989;28;20045;-76
2020/12/13 12:14:53;;;;;;;12.00;4.75;;;;;;;;;;5054715;28;20037;-79
2020/12/13 12:17:19;;;;;;;10.88;4.57;;;;;;;;;;5036664;28;20094;-76
2020/12/13 12:19:44;;;;;;;9.77;4.60;;;;;;;;;;5048203;28;20021;-77
2020/12/13 12:22:09;;;;;;;10.20;5.38;;;;;;;;;;5040929;28;20033;-75
2020/12/13 12:24:34;;;;;;;9.98;4.82;;;;;;;;;;5045601;28;20088;-74
2020/12/13 12:27:01;;;;;;;16.33;5.72;;;;;;;;;;5047162;28;20025;-75
2020/12/13 12:29:26;;;;;;;13.15;4.22;;;;;;;;;;5046211;28;20052;-74
2020/12/13 12:31:52;;;;;;;12.38;4.28;;;;;;;;;;5046808;28;20528;-74
2020/12/13 12:34:17;;;;;;;9.32;3.90;;;;;;;;;;5052872;28;20083;-74
2020/12/13 12:36:43;;;;;;;9.20;3.60;;;;;;;;;;5053426;28;20410;-74
2020/12/13 12:39:08;;;;;;;8.52;4.20;;;;;;;;;;5049818;28;20115;-74
2020/12/13 12:41:34;;;;;;;11.93;4.90;;;;;;;;;;5056862;28;20025;-73
2020/12/13 12:43:59;;;;;;;10.15;5.53;;;;;;;;;;5051277;28;20112;-74
2020/12/13 12:46:24;;;;;;;11.65;4.82;;;;;;;;;;5049442;28;20065;-77
2020/12/13 12:48:49;;;;;;;9.88;4.43;;;;;;;;;;5051319;28;20103;-75
2020/12/13 12:51:16;;;;;;;10.48;4.95;;;;;;;;;;5053340;28;20037;-76
2020/12/13 12:53:41;;;;;;;6.68;3.40;;;;;;;;;;5052531;28;20041;-74
2020/12/13 12:56:07;;;;;;;12.52;5.10;;;;;;;;;;5052141;28;20017;-75
2020/12/13 12:58:41;;;;;;;10.85;4.47;;;;;;;;;;5056975;28;20075;-74
2020/12/13 13:01:10;;;;;;;12.15;5.30;;;;;;;;;;5048192;28;20552;-75
2020/12/13 13:03:35;;;;;;;11.80;5.10;;;;;;;;;;5054500;28;20025;-74
2020/12/13 13:10:54;;;;;;;11.90;6.75;;;;;;;;;;5051419;28;20051;-75
2020/12/13 13:13:20;;;;;;;14.15;6.65;;;;;;;;;;5053125;28;20029;-75
2020/12/13 13:18:14;;;;;;;19.45;9.13;;;;;;;;;;5049521;28;20458;-75
2020/12/13 13:20:41;;;;;;;25.90;10.00;;;;;;;;;;5061383;28;20024;-75
2020/12/13 13:23:06;;;;;;;26.15;10.77;;;;;;;;;;5052941;28;20520;-75
2020/12/13 13:25:32;;;;;;;26.95;11.23;;;;;;;;;;5052788;28;20091;-74
2020/12/13 13:27:57;;;;;;;29.13;11.07;;;;;;;;;;5055327;28;20942;-75
2020/12/13 13:30:22;;;;;;;41.60;14.43;;;;;;;;;;5049806;28;20083;-75
2020/12/13 13:32:48;;;;;;;30.23;12.02;;;;;;;;;;5044425;28;20052;-75
2020/12/13 13:35:13;;;;;;;26.92;11.35;;;;;;;;;;5065159;28;20024;-75
2020/12/13 13:37:38;;;;;;;27.67;10.88;;;;;;;;;;5057935;28;20479;-74
2020/12/13 13:40:04;;;;;;;27.60;10.50;;;;;;;;;;5057591;28;20028;-75
2020/12/13 13:42:30;;;;;;;27.42;12.20;;;;;;;;;;5048905;28;20029;-74
2020/12/13 13:50:19;;;;;;;16.92;6.32;;;;;;;;;;5052764;28;20379;-75
2020/12/13 13:52:44;;;;;;;11.85;5.13;;;;;;;;;;5050827;28;20043;-74
2020/12/13 13:55:55;;;;;;;12.60;6.20;;;;;;;;;;5052291;28;20140;-74
2020/12/13 13:58:01;;;;;;;15.98;6.82;;;;;;;;;;5048366;28;20037;-74
2020/12/13 14:00:27;;;;;;;8.93;2.42;;;;;;;;;;5052606;28;20178;-74
2020/12/13 14:02:52;;;;;;;8.93;2.90;;;;;;;;;;5051884;28;20039;-74
2020/12/13 14:05:17;;;;;;;6.05;3.00;;;;;;;;;;5053101;28;20017;-75
2020/12/13 14:10:27;;;;;;;5.65;2.50;;;;;;;;;;5044573;28;20032;-74
2020/12/13 14:12:52;;;;;;;6.88;2.90;;;;;;;;;;5048022;28;20033;-75
2020/12/13 14:15:17;;;;;;;8.80;5.57;;;;;;;;;;5049415;28;20145;-75
2020/12/13 14:17:42;;;;;;;5.28;3.35;;;;;;;;;;5048641;28;20060;-75
2020/12/13 14:20:08;;;;;;;4.70;2.35;;;;;;;;;;5049275;28;20037;-75
2020/12/13 14:22:33;;;;;;;7.50;3.17;;;;;;;;;;5047770;28;20061;-76
2020/12/13 14:24:58;;;;;;;8.60;3.38;;;;;;;;;;5048867;28;20021;-75
2020/12/13 14:27:23;;;;;;;6.10;2.63;;;;;;;;;;5049153;28;20400;-75
2020/12/13 14:29:49;;;;;;;8.60;2.30;;;;;;;;;;5049741;28;20035;-75
2020/12/13 14:32:15;;;;;;;6.97;1.98;;;;;;;;;;5056522;28;20028;-76
2020/12/13 14:34:40;;;;;;;5.90;2.30;;;;;;;;;;5052118;28;20735;-75
2020/12/13 14:37:05;;;;;;;6.43;2.25;;;;;;;;;;5050409;28;20024;-75
2020/12/13 14:39:30;;;;;;;4.85;3.03;;;;;;;;;;5052812;28;20444;-75
2020/12/13 14:41:57;;;;;;;6.47;2.75;;;;;;;;;;5063234;28;20529;-75
2020/12/13 14:44:24;;;;;;;6.50;2.50;;;;;;;;;;5060710;28;20074;-75
2020/12/13 14:46:50;;;;;;;8.95;2.70;;;;;;;;;;5055343;28;20024;-75
2020/12/13 14:49:15;;;;;;;4.55;2.08;;;;;;;;;;5058070;28;20358;-75
2020/12/13 14:51:40;;;;;;;10.82;2.95;;;;;;;;;;5053936;28;20061;-75
2020/12/13 14:54:06;;;;;;;8.75;2.90;;;;;;;;;;5057663;28;20451;-75
2020/12/13 14:56:31;;;;;;;5.82;2.67;;;;;;;;;;5054742;28;20047;-75
2020/12/13 14:58:56;;;;;;;5.75;1.85;;;;;;;;;;5053548;28;20475;-75
2020/12/13 15:01:22;;;;;;;5.95;2.80;;;;;;;;;;5058172;28;20060;-75
2020/12/13 15:03:47;;;;;;;4.70;2.60;;;;;;;;;;5054217;28;20111;-74
2020/12/13 15:06:21;;;;;;;3.13;1.75;;;;;;;;;;5053139;28;20048;-75
2020/12/13 15:08:46;;;;;;;3.17;1.70;;;;;;;;;;5056127;28;20033;-74
2020/12/13 15:11:11;;;;;;;5.47;1.70;;;;;;;;;;5050569;28;20044;-74
2020/12/13 15:13:41;;;;;;;6.05;2.90;;;;;;;;;;5052870;28;20017;-75
2020/12/13 15:18:50;;;;;;;6.50;1.80;;;;;;;;;;5050856;28;20120;-74
2020/12/13 15:21:16;;;;;;;13.10;6.00;;;;;;;;;;5055830;28;20103;-75
2020/12/13 15:23:41;;;;;;;12.70;6.28;;;;;;;;;;5057258;28;20040;-74
2020/12/13 15:26:06;;;;;;;8.80;4.43;;;;;;;;;;5042239;28;20028;-76
2020/12/13 15:28:32;;;;;;;12.00;6.25;;;;;;;;;;5048080;28;20181;-74
2020/12/13 15:30:57;;;;;;;13.52;4.90;;;;;;;;;;5049000;28;20052;-74
2020/12/13 15:33:24;;;;;;;14.38;7.50;;;;;;;;;;5052813;28;20028;-74
2020/12/13 15:35:49;;;;;;;8.70;4.03;;;;;;;;;;5048139;28;20021;-74
2020/12/13 15:38:14;;;;;;;8.30;4.93;;;;;;;;;;5048566;28;20079;-75
2020/12/13 15:40:40;;;;;;;10.15;6.35;;;;;;;;;;5048070;28;20029;-74
2020/12/13 15:43:05;;;;;;;12.68;7.13;;;;;;;;;;5040599;28;20025;-75
2020/12/13 15:45:31;;;;;;;12.02;6.82;;;;;;;;;;5042216;28;20882;-77
2020/12/13 15:47:57;;;;;;;9.18;6.18;;;;;;;;;;5046707;28;20029;-76
2020/12/13 15:50:24;;;;;;;16.00;8.88;;;;;;;;;;5047996;28;20496;-75
2020/12/13 15:52:50;;;;;;;8.88;6.35;;;;;;;;;;5047796;28;20040;-74
2020/12/13 15:55:16;;;;;;;7.57;3.25;;;;;;;;;;5067565;28;20135;-74
2020/12/13 15:57:41;;;;;;;13.38;7.25;;;;;;;;;;5048287;28;20382;-74
2020/12/13 16:00:06;;;;;;;6.72;4.50;;;;;;;;;;5038937;28;20041;-75
2020/12/13 16:02:31;;;;;;;11.30;6.03;;;;;;;;;;5053521;28;20025;-75
2020/12/13 16:05:08;;;;;;;8.55;5.65;;;;;;;;;;5054437;28;20480;-74
2020/12/13 16:07:38;;;;;;;13.48;7.57;;;;;;;;;;5040428;28;20127;-75
2020/12/13 16:10:03;;;;;;;9.57;6.50;;;;;;;;;;5050667;28;20020;-74
2020/12/13 16:12:28;;;;;;;9.13;7.20;;;;;;;;;;5050767;28;20041;-74
2020/12/13 16:14:56;;;;;;;16.55;9.93;;;;;;;;;;5053060;28;20044;-74
2020/12/13 16:17:22;;;;;;;8.52;5.97;;;;;;;;;;5064293;28;20025;-75
2020/12/13 16:19:47;;;;;;;8.02;6.25;;;;;;;;;;5045263;28;20044;-76
2020/12/13 16:22:12;;;;;;;9.60;5.30;;;;;;;;;;5056870;28;20111;-74
2020/12/13 16:24:40;;;;;;;15.70;10.75;;;;;;;;;;5056555;28;20071;-74
2020/12/13 16:27:05;;;;;;;27.42;18.65;;;;;;;;;;5054161;28;20049;-74
2020/12/13 16:29:30;;;;;;;12.00;8.45;;;;;;;;;;5053687;28;20049;-74
2020/12/13 16:31:56;;;;;;;11.00;5.30;;;;;;;;;;5051871;28;20032;-76
2020/12/13 16:34:21;;;;;;;12.93;7.43;;;;;;;;;;5063251;28;20051;-75
2020/12/13 16:36:48;;;;;;;10.32;6.30;;;;;;;;;;5068919;28;20021;-75
2020/12/13 16:39:20;;;;;;;10.55;7.90;;;;;;;;;;5054803;28;20123;-75
2020/12/13 16:41:54;;;;;;;10.40;7.53;;;;;;;;;;5054009;28;20025;-74
2020/12/13 16:44:24;;;;;;;15.95;7.90;;;;;;;;;;5052876;28;20016;-75
2020/12/13 16:46:52;;;;;;;10.90;5.93;;;;;;;;;;5048256;28;20421;-77
2020/12/13 16:54:29;;;;;;;14.27;5.65;;;;;;;;;;5049816;28;20029;-75
2020/12/13 16:56:54;;;;;;;9.45;5.57;;;;;;;;;;5051798;28;20027;-75
2020/12/13 16:59:19;;;;;;;10.63;6.38;;;;;;;;;;5046633;28;20032;-75
2020/12/13 17:01:47;;;;;;;7.97;5.07;;;;;;;;;;5049075;28;20073;-74
2020/12/13 17:04:12;;;;;;;7.10;4.10;;;;;;;;;;5061340;28;20032;-75
2020/12/13 17:06:38;;;;;;;8.25;4.18;;;;;;;;;;5057697;28;20033;-75
2020/12/13 17:09:04;;;;;;;9.93;6.28;;;;;;;;;;5051764;28;20031;-74
2020/12/13 17:11:30;;;;;;;10.05;5.20;;;;;;;;;;5056931;28;20041;-74
2020/12/13 17:13:55;;;;;;;5.88;3.63;;;;;;;;;;5054327;28;20690;-74
2020/12/13 17:16:24;;;;;;;5.90;3.72;;;;;;;;;;5054401;28;20457;-77
2020/12/13 17:18:49;;;;;;;8.23;5.05;;;;;;;;;;5066352;28;20095;-75
2020/12/13 17:21:15;;;;;;;8.30;3.92;;;;;;;;;;5067545;28;20135;-74
2020/12/13 17:23:40;;;;;;;3.90;1.88;;;;;;;;;;5054581;28;20165;-74
2020/12/13 17:26:06;;;;;;;9.10;1.98;;;;;;;;;;5052550;28;20499;-74
2020/12/13 17:28:31;;;;;;;10.57;1.98;;;;;;;;;;5050994;28;20047;-74
2020/12/13 17:30:56;;;;;;;11.68;2.83;;;;;;;;;;5057591;28;20028;-74
2020/12/13 17:33:22;;;;;;;10.15;2.15;;;;;;;;;;5059040;28;20091;-74
2020/12/13 17:35:47;;;;;;;13.23;2.50;;;;;;;;;;5061101;28;20502;-74
2020/12/13 17:38:12;;;;;;;13.13;2.55;;;;;;;;;;5058157;28;20049;-74
2020/12/13 17:40:37;;;;;;;15.35;3.70;;;;;;;;;;5053936;28;20035;-75
2020/12/13 17:43:05;;;;;;;14.63;3.78;;;;;;;;;;5060312;28;20025;-74
2020/12/13 17:45:32;;;;;;;19.80;4.40;;;;;;;;;;5065467;28;20032;-76
2020/12/13 17:47:57;;;;;;;19.65;6.45;;;;;;;;;;5051205;28;20419;-74
2020/12/13 17:58:23;;;;;;;20.15;7.93;;;;;;;;;;5043894;28;20076;-75
2020/12/13 18:00:48;;;;;;;33.25;10.60;;;;;;;;;;5051526;28;20068;-75
2020/12/13 18:03:14;;;;;;;34.83;16.48;;;;;;;;;;5055985;28;20028;-75
2020/12/13 18:05:39;;;;;;;49.80;23.48;;;;;;;;;;5063575;28;20388;-74
2020/12/13 18:08:04;;;;;;;40.88;16.02;;;;;;;;;;5053367;28;20053;-74
2020/12/13 18:10:37;;;;;;;33.72;13.98;;;;;;;;;;5053863;28;20503;-75
2020/12/13 18:13:03;;;;;;;24.73;9.07;;;;;;;;;;5061206;28;20039;-74
2020/12/13 18:15:30;;;;;;;14.20;3.83;;;;;;;;;;5058248;28;20028;-74
2020/12/13 18:17:56;;;;;;;17.98;4.55;;;;;;;;;;5054401;28;20048;-74
2020/12/13 18:20:21;;;;;;;22.58;4.13;;;;;;;;;;5052433;28;20024;-74
2020/12/13 18:22:48;;;;;;;26.35;8.57;;;;;;;;;;5053796;28;20452;-74
2020/12/13 18:25:13;;;;;;;21.20;5.65;;;;;;;;;;5050972;28;20496;-75
2020/12/13 18:27:39;;;;;;;19.98;3.45;;;;;;;;;;5052184;28;20025;-75
2020/12/13 18:30:05;;;;;;;14.02;2.97;;;;;;;;;;5061084;28;20025;-76
2020/12/13 18:32:30;;;;;;;21.67;6.10;;;;;;;;;;5058785;28;20049;-74
2020/12/13 18:34:56;;;;;;;24.80;5.88;;;;;;;;;;5059770;28;20021;-75
2020/12/13 18:37:22;;;;;;;50.88;9.75;;;;;;;;;;5048415;28;20033;-75
2020/12/13 18:39:47;;;;;;;48.92;12.75;;;;;;;;;;5051305;28;20103;-74
2020/12/13 18:42:13;;;;;;;32.35;7.68;;;;;;;;;;5053827;28;20104;-74
2020/12/13 18:44:38;;;;;;;28.83;8.48;;;;;;;;;;5051840;28;20021;-74
2020/12/13 18:47:03;;;;;;;31.52;7.45;;;;;;;;;;5053190;28;20064;-75
2020/12/13 18:49:29;;;;;;;38.65;8.40;;;;;;;;;;5067469;28;20021;-75
2020/12/13 18:51:55;;;;;;;37.67;8.68;;;;;;;;;;5060080;28;20048;-74
2020/12/13 18:54:22;;;;;;;27.95;7.95;;;;;;;;;;5053906;28;20040;-74
2020/12/13 18:56:48;;;;;;;41.08;12.43;;;;;;;;;;5065143;28;20021;-74
2020/12/13 18:59:15;;;;;;;35.20;7.57;;;;;;;;;;5052456;28;20024;-74
2020/12/13 19:01:45;;;;;;;30.45;8.05;;;;;;;;;;5051019;28;20052;-75
2020/12/13 19:06:41;;;;;;;29.17;7.35;;;;;;;;;;5053092;28;20025;-74
2020/12/13 19:09:09;;;;;;;31.75;8.00;;;;;;;;;;5052535;28;20440;-75
2020/12/13 19:11:35;;;;;;;27.88;5.78;;;;;;;;;;5057834;28;20028;-75
2020/12/13 19:14:00;;;;;;;35.88;6.35;;;;;;;;;;5042587;28;20031;-76
2020/12/13 19:16:25;;;;;;;36.53;6.82;;;;;;;;;;5045405;28;21055;-75
2020/12/13 19:18:50;;;;;;;28.27;6.10;;;;;;;;;;5047354;28;20031;-74
2020/12/13 19:21:16;;;;;;;30.98;9.40;;;;;;;;;;5048754;28;20029;-76
2020/12/13 19:23:41;;;;;;;36.05;6.05;;;;;;;;;;5049191;28;20039;-75
2020/12/13 19:26:07;;;;;;;27.83;6.35;;;;;;;;;;5049473;28;20017;-75
2020/12/13 19:28:32;;;;;;;30.65;7.30;;;;;;;;;;5049518;28;20023;-75
2020/12/13 19:30:58;;;;;;;35.42;7.57;;;;;;;;;;5048707;28;20043;-75
2020/12/13 19:33:23;;;;;;;31.35;4.97;;;;;;;;;;5051639;28;20025;-74
2020/12/13 19:35:48;;;;;;;40.22;6.18;;;;;;;;;;5041707;28;20467;-75
2020/12/13 19:38:13;;;;;;;33.38;5.18;;;;;;;;;;5050787;28;20033;-75
2020/12/13 19:40:39;;;;;;;32.97;5.45;;;;;;;;;;5050796;28;20029;-74
2020/12/13 19:43:04;;;;;;;41.00;5.72;;;;;;;;;;5049181;28;20029;-74
2020/12/13 19:45:32;;;;;;;32.45;5.85;;;;;;;;;;5048034;28;20105;-75
2020/12/13 19:47:57;;;;;;;32.40;5.88;;;;;;;;;;5049206;28;20491;-74
2020/12/13 19:50:24;;;;;;;50.88;10.32;;;;;;;;;;5051376;28;20110;-74
2020/12/13 19:52:49;;;;;;;43.97;12.07;;;;;;;;;;5050473;28;20033;-75
2020/12/13 19:55:15;;;;;;;43.38;8.50;;;;;;;;;;5050575;28;20539;-75
2020/12/13 19:57:45;;;;;;;46.47;8.90;;;;;;;;;;5049770;28;20036;-74
2020/12/13 20:00:11;;;;;;;50.25;8.52;;;;;;;;;;5057696;28;20687;-75
2020/12/13 20:02:40;;;;;;;45.97;6.90;;;;;;;;;;5051468;28;20128;-74
2020/12/13 20:05:05;;;;;;;52.90;11.00;;;;;;;;;;5060159;28;20029;-75
2020/12/13 20:07:30;;;;;;;58.10;10.02;;;;;;;;;;5060198;28;20352;-75
2020/12/13 20:09:56;;;;;;;46.22;8.50;;;;;;;;;;5052931;28;20036;-74
2020/12/13 20:12:22;;;;;;;45.45;8.18;;;;;;;;;;5051604;28;20037;-74
2020/12/13 21:16:23;;;;;;;72.82;9.48;;;;;;;;;;5050786;28;20064;-75
2020/12/13 21:18:47;;;;;;;42.75;6.25;;;;;;;;;;5048393;28;20055;-74
2020/12/13 21:44:54;;;;;;;53.78;7.30;;;;;;;;;;5050833;28;20041;-74
2020/12/13 21:47:27;;;;;;;50.38;6.78;;;;;;;;;;5050207;28;20495;-74
2020/12/13 21:52:36;;;;;;;50.83;6.20;;;;;;;;;;5048007;28;20055;-74
2020/12/13 21:57:28;;;;;;;52.88;7.32;;;;;;;;;;5050218;28;20128;-75
2020/12/13 21:59:56;;;;;;;43.90;5.50;;;;;;;;;;5051755;28;20698;-75
2020/12/13 22:26:37;;;;;;;37.08;4.53;;;;;;;;;;5049080;28;20658;-75
2020/12/13 22:29:04;;;;;;;27.00;3.47;;;;;;;;;;5027013;28;20020;-77
2020/12/13 22:31:30;;;;;;;23.13;3.13;;;;;;;;;;5047448;28;20036;-75
2020/12/13 22:33:55;;;;;;;23.30;2.60;;;;;;;;;;5046084;28;20031;-75
2020/12/13 22:36:20;;;;;;;24.30;3.10;;;;;;;;;;5049515;28;20032;-75
2020/12/13 22:38:46;;;;;;;16.30;2.78;;;;;;;;;;5047658;28;20112;-76
2020/12/13 22:41:12;;;;;;;18.83;2.85;;;;;;;;;;5048725;28;20056;-74
2020/12/13 22:43:38;;;;;;;16.83;3.05;;;;;;;;;;5050962;28;20428;-74
2020/12/13 22:46:03;;;;;;;21.23;5.57;;;;;;;;;;5051226;28;20029;-74
2020/12/13 22:48:28;;;;;;;17.05;2.65;;;;;;;;;;5052157;28;20028;-74
2020/12/13 22:50:54;;;;;;;29.52;3.00;;;;;;;;;;5049719;28;20028;-74
2020/12/13 22:53:20;;;;;;;12.93;2.33;;;;;;;;;;5051811;28;20036;-75
2020/12/13 22:55:45;;;;;;;18.30;3.03;;;;;;;;;;5048456;28;20063;-75
2020/12/13 22:58:11;;;;;;;26.70;3.13;;;;;;;;;;5048935;28;20075;-78
